createdAt,value
2018-12-15T04:55:40.384Z,14.17
2018-12-15T04:58:07.982Z,21.27
2018-12-15T05:00:36.549Z,13.57
2018-12-15T05:03:05.196Z,16.75
2018-12-15T05:05:32.925Z,13.27
2018-12-15T05:08:01.168Z,12.23
2018-12-15T05:10:28.961Z,19.05
2018-12-15T05:12:56.654Z,16.03
2018-12-15T05:15:25.005Z,20.27
2018-12-15T05:17:52.943Z,17.00
2018-12-15T05:20:20.911Z,25.20
2018-12-15T05:22:48.591Z,11.97
2018-12-15T05:25:16.205Z,17.73
2018-12-15T05:27:43.917Z,17.70
2018-12-15T05:30:12.199Z,9.73
2018-12-15T05:32:39.872Z,10.77
2018-12-15T05:35:07.946Z,14.90
2018-12-15T05:37:35.854Z,11.83
2018-12-15T05:40:04.276Z,19.30
2018-12-15T05:42:32.058Z,22.20
2018-12-15T05:45:00.210Z,15.03
2018-12-15T05:47:27.875Z,15.17
2018-12-15T05:49:56.079Z,18.23
2018-12-15T05:52:23.999Z,17.70
2018-12-15T05:54:51.654Z,16.12
2018-12-15T05:57:19.359Z,19.03
2018-12-15T05:59:47.300Z,21.60
2018-12-15T06:02:16.896Z,21.05
2018-12-15T06:04:44.508Z,13.53
2018-12-15T06:07:12.073Z,15.30
2018-12-15T06:09:39.744Z,17.27
2018-12-15T06:12:07.423Z,20.40
2018-12-15T06:14:35.120Z,11.27
2018-12-15T06:17:02.780Z,20.87
2018-12-15T06:19:30.484Z,16.47
2018-12-15T06:21:58.187Z,19.07
2018-12-15T06:24:25.914Z,15.70
2018-12-15T06:26:53.982Z,15.27
2018-12-15T06:29:22.195Z,18.90
2018-12-15T06:31:50.282Z,16.40
2018-12-15T06:34:18.300Z,14.73
2018-12-15T06:36:45.945Z,24.33
2018-12-15T06:39:14.134Z,21.10
2018-12-15T06:41:42.059Z,15.57
2018-12-15T06:44:11.598Z,13.43
2018-12-15T06:46:39.739Z,22.73
2018-12-15T06:49:07.535Z,19.60
2018-12-15T06:51:35.222Z,15.63
2018-12-15T06:54:03.663Z,13.30
2018-12-15T06:56:31.488Z,18.97
2018-12-15T06:58:59.170Z,20.27
2018-12-15T07:01:26.793Z,21.07
2018-12-15T07:03:54.509Z,15.73
2018-12-15T07:06:23.087Z,19.57
2018-12-15T07:08:50.858Z,15.97
2018-12-15T07:11:18.954Z,13.23
2018-12-15T07:13:47.309Z,16.07
2018-12-15T07:16:15.453Z,15.75
2018-12-15T07:18:44.923Z,19.50
2018-12-15T07:21:12.829Z,15.15
2018-12-15T07:23:41.527Z,19.40
2018-12-15T07:26:10.059Z,11.88
2018-12-15T07:28:38.579Z,15.08
2018-12-15T07:31:07.428Z,14.23
2018-12-15T07:33:36.587Z,23.33
2018-12-15T07:36:08.649Z,20.77
2018-12-15T07:38:37.637Z,11.53
2018-12-15T07:41:05.342Z,8.53
2018-12-15T07:43:33.175Z,19.23
2018-12-15T07:46:01.563Z,12.60
2018-12-15T07:48:30.116Z,12.77
2018-12-15T07:50:58.542Z,14.70
2018-12-15T07:53:26.301Z,17.98
2018-12-15T07:55:54.066Z,10.85
2018-12-15T07:58:22.221Z,14.23
2018-12-15T08:00:50.525Z,13.40
2018-12-15T08:03:18.163Z,13.68
2018-12-15T08:05:46.789Z,17.33
2018-12-15T08:08:15.341Z,16.67
2018-12-15T08:10:48.374Z,11.47
2018-12-15T08:13:22.840Z,13.13
2018-12-15T08:15:51.276Z,17.60
2018-12-15T08:18:21.563Z,14.67
2018-12-15T08:20:49.249Z,16.33
2018-12-15T08:23:16.879Z,14.57
2018-12-15T08:25:44.863Z,12.03
2018-12-15T08:28:15.549Z,13.57
2018-12-15T08:30:43.371Z,13.80
2018-12-15T08:33:12.044Z,13.67
2018-12-15T08:35:39.704Z,21.13
2018-12-15T08:38:07.454Z,21.90
2018-12-15T08:40:35.154Z,20.37
2018-12-15T08:43:03.716Z,17.50
2018-12-15T08:45:32.301Z,26.60
2018-12-15T08:48:01.492Z,20.53
2018-12-15T08:50:29.488Z,24.23
2018-12-15T08:52:57.874Z,24.93
2018-12-15T08:55:26.038Z,27.47
2018-12-15T08:57:53.947Z,20.67
2018-12-15T09:00:21.635Z,28.13
2018-12-15T09:02:49.647Z,20.00
2018-12-15T09:05:17.575Z,21.93
2018-12-15T09:07:45.705Z,22.17
2018-12-15T09:10:13.344Z,25.93
2018-12-15T09:12:41.313Z,23.07
2018-12-15T09:15:09.258Z,28.87
2018-12-15T09:17:36.962Z,22.87
2018-12-15T09:20:06.073Z,24.57
2018-12-15T09:22:33.791Z,20.47
2018-12-15T09:25:01.466Z,26.53
2018-12-15T09:27:29.216Z,22.50
2018-12-15T09:29:57.349Z,28.20
2018-12-15T09:32:24.944Z,22.50
2018-12-15T09:34:52.734Z,26.63
2018-12-15T09:37:20.431Z,20.03
2018-12-15T09:39:48.362Z,26.30
2018-12-15T09:42:16.356Z,23.03
2018-12-15T09:44:44.042Z,21.90
2018-12-15T09:47:11.728Z,32.60
2018-12-15T09:49:39.584Z,29.97
2018-12-15T09:52:07.215Z,19.40
2018-12-15T09:54:34.848Z,23.80
2018-12-15T09:57:02.601Z,21.30
2018-12-15T09:59:30.626Z,27.80
2018-12-15T10:01:58.290Z,25.33
2018-12-15T10:04:26.008Z,21.73
2018-12-15T10:06:54.336Z,26.93
2018-12-15T10:09:21.949Z,21.93
2018-12-15T10:11:49.607Z,28.13
2018-12-15T10:14:17.672Z,29.27
2018-12-15T10:16:46.212Z,21.13
2018-12-15T10:19:14.742Z,22.07
2018-12-15T10:21:42.461Z,26.93
2018-12-15T10:24:10.169Z,25.87
2018-12-15T10:26:37.929Z,26.00
2018-12-15T10:29:08.516Z,13.70
2018-12-15T10:31:41.425Z,21.60
2018-12-15T10:34:09.897Z,16.87
2018-12-15T10:36:37.728Z,17.37
2018-12-15T10:39:07.671Z,27.57
2018-12-15T10:41:36.045Z,25.03
2018-12-15T10:44:04.422Z,18.23
2018-12-15T10:46:32.084Z,23.23
2018-12-15T10:49:00.220Z,23.00
2018-12-15T10:51:28.230Z,20.57
2018-12-15T10:53:56.858Z,23.03
2018-12-15T10:56:25.169Z,23.03
2018-12-15T10:58:53.629Z,21.20
2018-12-15T11:01:23.111Z,22.77
2018-12-15T11:03:51.122Z,21.27
2018-12-15T11:06:19.449Z,20.70
2018-12-15T11:08:47.144Z,20.80
2018-12-15T11:11:16.260Z,17.97
2018-12-15T11:13:49.990Z,19.20
2018-12-15T11:16:17.948Z,29.93
2018-12-15T11:18:45.775Z,22.57
2018-12-15T11:21:13.395Z,25.70
2018-12-15T11:23:41.233Z,22.70
2018-12-15T11:26:09.169Z,24.97
2018-12-15T11:28:36.894Z,20.37
2018-12-15T11:31:04.591Z,17.33
2018-12-15T11:33:32.363Z,17.80
2018-12-15T11:36:00.944Z,18.73
2018-12-15T11:38:28.567Z,22.40
2018-12-15T11:40:56.371Z,28.63
2018-12-15T11:43:24.135Z,18.97
2018-12-15T11:45:52.364Z,19.10
2018-12-15T11:48:20.086Z,21.70
2018-12-15T11:50:48.053Z,20.57
2018-12-15T11:53:16.118Z,19.87
2018-12-15T11:55:44.665Z,20.40
2018-12-15T11:58:14.189Z,19.50
2018-12-15T12:00:43.219Z,19.40
2018-12-15T12:03:11.487Z,25.87
2018-12-15T12:05:39.303Z,22.77
2018-12-15T12:08:07.078Z,19.57
2018-12-15T12:10:35.759Z,19.90
2018-12-15T12:13:03.434Z,19.17
2018-12-15T12:15:31.168Z,20.57
2018-12-15T12:17:58.969Z,18.87
2018-12-15T12:20:26.902Z,15.90
2018-12-15T12:22:54.989Z,22.30
2018-12-15T12:25:22.643Z,14.03
2018-12-15T12:27:50.899Z,23.00
2018-12-15T12:30:18.837Z,17.27
2018-12-15T12:32:46.531Z,15.77
2018-12-15T12:35:15.235Z,19.90
2018-12-15T12:37:43.149Z,19.27
2018-12-15T12:40:10.875Z,12.77
2018-12-15T12:42:38.993Z,19.80
2018-12-15T12:45:07.121Z,17.30
2018-12-15T12:47:35.562Z,13.20
2018-12-15T12:50:03.405Z,12.37
2018-12-15T12:52:32.283Z,21.17
2018-12-15T12:55:00.214Z,16.33
2018-12-15T12:57:28.437Z,12.93
2018-12-15T12:59:57.741Z,15.27
2018-12-15T13:02:25.569Z,26.47
2018-12-15T13:04:53.331Z,17.53
2018-12-15T13:07:21.545Z,16.70
2018-12-15T13:09:50.702Z,9.27
2018-12-15T13:12:19.957Z,16.00
2018-12-15T13:14:48.630Z,15.53
2018-12-15T13:17:17.066Z,16.97
2018-12-15T13:19:44.878Z,17.93
2018-12-15T13:22:12.748Z,16.20
2018-12-15T13:24:40.497Z,10.30
2018-12-15T13:27:08.116Z,15.37
2018-12-15T13:29:35.915Z,10.57
2018-12-15T13:32:05.224Z,12.40
2018-12-15T13:34:33.265Z,13.77
2018-12-15T13:37:01.393Z,15.40
2018-12-15T13:39:29.620Z,16.33
2018-12-15T13:41:57.521Z,16.33
2018-12-15T13:44:26.195Z,17.40
2018-12-15T13:46:54.893Z,20.20
2018-12-15T13:49:23.000Z,13.57
2018-12-15T13:51:50.974Z,17.00
2018-12-15T13:54:19.019Z,16.50
2018-12-15T13:56:46.897Z,24.57
2018-12-15T13:59:14.860Z,15.97
2018-12-15T14:01:42.798Z,16.17
2018-12-15T14:04:10.948Z,22.50
2018-12-15T14:06:39.062Z,15.30
2018-12-15T14:09:08.320Z,16.87
2018-12-15T14:11:36.853Z,18.93
2018-12-15T14:14:05.053Z,14.40
2018-12-15T14:16:32.987Z,13.80
2018-12-15T14:19:00.786Z,17.20
2018-12-15T14:21:29.348Z,14.30
2018-12-15T14:23:57.627Z,14.90
2018-12-15T14:26:26.012Z,17.60
2018-12-15T14:28:54.906Z,15.00
2018-12-15T14:31:22.873Z,20.30
2018-12-15T14:33:51.815Z,15.80
2018-12-15T14:36:19.806Z,12.67
2018-12-15T14:38:48.729Z,18.10
2018-12-15T14:41:17.178Z,14.50
2018-12-15T14:43:45.272Z,14.83
2018-12-15T14:46:13.167Z,12.30
2018-12-15T14:48:41.095Z,13.90
2018-12-15T14:51:10.094Z,5.05
2018-12-15T14:53:37.918Z,16.07
2018-12-15T14:56:06.197Z,9.50
2018-12-15T14:58:34.213Z,8.37
2018-12-15T15:01:02.370Z,11.70
2018-12-15T15:03:30.616Z,12.35
2018-12-15T15:05:58.326Z,10.27
2018-12-15T15:08:26.757Z,11.43
2018-12-15T15:10:54.529Z,10.45
2018-12-15T15:13:22.176Z,10.15
2018-12-15T15:15:50.561Z,11.78
2018-12-15T15:18:18.624Z,12.78
2018-12-15T15:20:47.128Z,9.45
2018-12-15T15:23:14.754Z,5.65
2018-12-15T15:25:42.797Z,11.78
2018-12-15T15:28:10.477Z,12.13
2018-12-15T15:30:38.317Z,10.30
2018-12-15T15:33:06.043Z,13.00
2018-12-15T15:35:34.220Z,1.70
2018-12-15T15:38:02.427Z,6.17
2018-12-15T15:40:30.348Z,11.90
2018-12-15T15:42:58.293Z,11.25
2018-12-15T15:45:26.445Z,5.17
2018-12-15T15:47:54.858Z,5.62
2018-12-15T15:50:22.639Z,8.48
2018-12-15T15:52:50.803Z,10.32
2018-12-15T15:55:19.031Z,19.15
2018-12-15T15:57:46.777Z,9.65
2018-12-15T16:00:14.551Z,6.37
2018-12-15T16:02:42.306Z,11.20
2018-12-15T16:05:10.140Z,6.67
2018-12-15T16:07:38.011Z,7.25
2018-12-15T16:10:07.795Z,10.70
2018-12-15T16:12:35.488Z,9.03
2018-12-15T16:15:03.558Z,10.75
2018-12-15T16:17:31.250Z,10.25
2018-12-15T16:19:58.916Z,9.53
2018-12-15T16:22:27.019Z,10.93
2018-12-15T16:24:54.946Z,9.73
2018-12-15T16:27:23.053Z,14.05
2018-12-15T16:29:51.909Z,24.15
2018-12-15T16:32:20.249Z,10.72
2018-12-15T16:34:48.265Z,11.65
2018-12-15T16:37:16.186Z,9.43
2018-12-15T16:39:44.503Z,10.78
2018-12-15T16:42:13.263Z,8.70
2018-12-15T16:44:41.452Z,9.78
2018-12-15T16:47:09.824Z,16.85
2018-12-15T16:49:38.022Z,10.65
2018-12-15T16:52:06.306Z,9.88
2018-12-15T16:54:34.733Z,16.67
2018-12-15T16:57:03.217Z,10.88
2018-12-15T16:59:31.365Z,11.70
2018-12-15T17:01:59.816Z,14.40
2018-12-15T17:04:27.932Z,10.58
2018-12-15T17:06:57.645Z,13.80
2018-12-15T17:09:26.756Z,12.23
2018-12-15T17:11:55.350Z,14.98
2018-12-15T17:14:23.450Z,14.00
2018-12-15T17:16:51.551Z,14.50
2018-12-15T17:19:21.057Z,21.75
2018-12-15T17:21:49.260Z,13.70
2018-12-15T17:24:17.327Z,15.05
2018-12-15T17:26:45.660Z,11.08
2018-12-15T17:29:13.724Z,11.18
2018-12-15T17:31:41.902Z,9.98
2018-12-15T17:34:09.952Z,7.83
2018-12-15T17:36:37.985Z,11.10
2018-12-15T17:39:07.368Z,15.30
2018-12-15T17:41:35.807Z,9.68
2018-12-15T17:44:04.842Z,12.20
2018-12-15T17:46:34.336Z,10.40
2018-12-15T17:49:03.177Z,8.50
2018-12-15T17:51:31.097Z,7.03
2018-12-15T17:53:59.039Z,10.20
2018-12-15T17:56:27.003Z,15.58
2018-12-15T17:58:55.042Z,10.18
2018-12-15T18:01:23.175Z,9.68
2018-12-15T18:03:51.082Z,11.50
2018-12-15T18:06:19.104Z,9.70
2018-12-15T18:08:47.906Z,14.73
2018-12-15T18:11:16.314Z,15.00
2018-12-15T18:13:44.530Z,8.85
2018-12-15T18:16:12.397Z,14.50
2018-12-15T18:18:40.416Z,14.95
2018-12-15T18:21:10.003Z,20.75
2018-12-15T18:23:38.536Z,14.95
2018-12-15T18:26:07.421Z,11.68
2018-12-15T18:28:35.950Z,13.15
2018-12-15T18:31:04.972Z,16.07
2018-12-15T18:33:37.048Z,13.20
2018-12-15T18:36:03.785Z,14.00
2018-12-15T18:38:32.881Z,11.65
2018-12-15T18:41:00.781Z,13.03
2018-12-15T18:43:29.199Z,9.58
2018-12-15T18:45:58.350Z,9.73
2018-12-15T18:48:26.449Z,13.53
2018-12-15T18:50:54.551Z,13.30
2018-12-15T18:53:22.778Z,11.43
2018-12-15T18:55:51.587Z,11.73
2018-12-15T18:58:19.488Z,15.32
2018-12-15T19:00:48.472Z,17.98
2018-12-15T19:03:16.585Z,12.68
2018-12-15T19:05:44.467Z,15.00
2018-12-15T19:08:12.386Z,13.50
2018-12-15T19:10:40.404Z,10.28
2018-12-15T19:13:08.652Z,8.98
2018-12-15T19:15:36.851Z,10.98
2018-12-15T19:18:04.872Z,10.55
2018-12-15T19:20:32.894Z,10.18
2018-12-15T19:23:00.814Z,10.45
2018-12-15T19:25:28.806Z,16.00
2018-12-15T19:27:57.368Z,16.10
2018-12-15T19:30:25.537Z,12.00
2018-12-15T19:32:54.277Z,16.10
2018-12-15T19:35:23.426Z,15.03
2018-12-15T19:37:51.516Z,9.28
2018-12-15T19:40:19.286Z,15.40
2018-12-15T19:42:48.425Z,7.65
2018-12-15T19:45:16.505Z,8.95
2018-12-15T19:47:44.523Z,10.45
2018-12-15T19:50:16.708Z,11.65
2018-12-15T19:52:45.251Z,8.28
2018-12-15T19:55:13.813Z,14.15
2018-12-15T19:57:41.903Z,13.90
2018-12-15T20:00:11.052Z,10.30
2018-12-15T20:02:39.155Z,15.78
2018-12-15T20:05:07.451Z,21.27
2018-12-15T20:07:35.624Z,8.83
2018-12-15T20:10:04.567Z,9.20
2018-12-15T20:12:33.520Z,13.25
2018-12-15T20:15:03.611Z,9.00
2018-12-15T20:17:33.186Z,12.63
2018-12-15T20:20:01.014Z,15.20
2018-12-15T20:22:29.690Z,13.40
2018-12-15T20:24:57.653Z,12.65
2018-12-15T20:27:26.141Z,12.85
2018-12-15T20:29:54.218Z,16.35
2018-12-15T20:32:22.688Z,17.23
2018-12-15T20:34:50.817Z,10.58
2018-12-15T20:37:19.934Z,18.32
2018-12-15T20:39:47.918Z,7.17
2018-12-15T20:42:16.319Z,13.28
2018-12-15T20:44:44.953Z,14.75
2018-12-15T20:47:12.900Z,9.05
2018-12-15T20:49:41.149Z,8.55
2018-12-15T20:52:09.654Z,8.83
2018-12-15T20:54:38.662Z,18.23
2018-12-15T20:57:08.044Z,11.08
2018-12-15T20:59:37.310Z,13.18
2018-12-15T21:02:05.705Z,10.70
2018-12-15T21:04:34.591Z,8.90
2018-12-15T21:07:03.564Z,8.88
2018-12-15T21:09:31.626Z,11.95
2018-12-15T21:12:00.094Z,17.60
2018-12-15T21:14:28.597Z,14.07
2018-12-15T21:16:56.604Z,8.13
2018-12-15T21:19:24.674Z,14.15
2018-12-15T21:21:52.546Z,15.40
2018-12-15T21:24:20.772Z,12.70
2018-12-15T21:26:48.687Z,9.83
2018-12-15T21:29:16.514Z,8.23
2018-12-15T21:31:44.692Z,6.35
2018-12-15T21:34:14.031Z,4.40
2018-12-15T21:36:42.000Z,10.20
2018-12-15T21:39:10.409Z,8.60
2018-12-15T21:41:39.577Z,13.00
2018-12-15T21:44:07.500Z,6.45
2018-12-15T21:46:35.584Z,9.75
2018-12-15T21:49:04.194Z,5.50
2018-12-15T21:51:32.225Z,6.15
2018-12-15T21:54:00.947Z,1.60
2018-12-15T21:56:29.327Z,10.72
2018-12-15T21:58:57.841Z,7.87
2018-12-15T22:01:26.092Z,14.13
2018-12-15T22:03:54.105Z,13.72
2018-12-15T22:06:22.539Z,9.80
2018-12-15T22:08:50.408Z,15.20
2018-12-15T22:11:18.721Z,12.40
2018-12-15T22:13:46.604Z,8.05
2018-12-15T22:16:14.665Z,12.28
2018-12-15T22:18:42.623Z,7.67
2018-12-15T22:21:11.225Z,6.22
2018-12-15T22:23:39.239Z,4.62
2018-12-15T22:26:07.106Z,8.10
2018-12-15T22:28:34.943Z,6.87
2018-12-15T22:31:03.305Z,7.62
2018-12-15T22:33:31.163Z,4.05
2018-12-15T22:35:59.988Z,7.75
2018-12-15T22:38:29.421Z,6.67
2018-12-15T22:40:58.203Z,12.25
2018-12-15T22:43:27.441Z,11.10
2018-12-15T22:45:56.377Z,7.65
2018-12-15T22:48:26.131Z,6.45
2018-12-15T22:50:54.047Z,13.28
2018-12-15T22:53:23.680Z,6.22
2018-12-15T22:55:52.415Z,12.37
2018-12-15T22:58:20.281Z,13.05
2018-12-15T23:00:54.398Z,2.62
2018-12-15T23:03:22.931Z,14.90
2018-12-15T23:05:51.717Z,16.65
2018-12-15T23:08:19.687Z,9.05
2018-12-15T23:10:47.813Z,13.62
2018-12-15T23:13:15.778Z,10.18
2018-12-15T23:15:43.711Z,12.93
2018-12-15T23:18:11.941Z,12.73
2018-12-15T23:20:39.893Z,15.70
